Eustis, FL (32726)

3:07 AM EST on December 25, 2014 (GMT -0500)
Loch Leven | Change Station
CLOSE
Current Station
Personal Weather Station
Location: Mount Dora, FL
Elevation: 174 ft
Nearby Weather Stations

Elev 174 ft 28.84 °N, 81.63 °W | Updated 4 minutes ago

Mostly Cloudy
Mostly Cloudy
61.9 °F
Feels Like 61.9 °F
N
5.3
Wind Variable Wind from WNW

Today
High -- | Low -- °F
--% Chance of Precip.
Yesterday
High -- | Low -- °F
Precip. -- in
7:17 AM 5:35 PM
Waxing Crescent, 14% visible
Pressure 30.01 in
Visibility 10.0 miles
Clouds Mostly Cloudy 1800 ft
Overcast 2400 ft
Dew Point 57 °F
Humidity 83%
Rainfall 0.00 in
Snow Depth Not available.
UV 0 out of 12
Pollen 4.40 out of 12
Air Quality Not available.
Flu Activity Not available.
METAR KLEE 250753Z AUTO 30009KT 10SM BKN018 OVC024 17/14 A3001 RMK AO2 SLP161 T01670144

More Conditions Fewer Conditions

Pressure 30.01 in
Visibility 10.0 miles
Clouds Mostly Cloudy 1800 ft
Overcast 2400 ft
Dew Point 57 °F
Humidity 83%
Rainfall 0.00 in
Snow Depth Not available.
UV 0 out of 12
Pollen 4.40 out of 12
Air Quality Not available.
Flu Activity Not available.
METAR KLEE 250753Z AUTO 30009KT 10SM BKN018 OVC024 17/14 A3001 RMK AO2 SLP161 T01670144

More Conditions Fewer Conditions

10-Day Weather Forecast

Almanac

Astronomy

Dec. 25, 2014 Rise Set
Actual Time
Civil Twilight
Nautical Twilight
Astronomical Twilight
Moon
Length of Visible Light
Length of Day
Tomorrow will be .
, % of the Moon is Illuminated

Today's Extremes

State Highs State Lows

Community

WunderPhotos

Upload Photos

1,780,250 photos uploaded!

WunderBlogs® & News

Nearby

Air Quality

  Air Quality AQ Index Pollutant
Not available.

Snow Depth

Station Depth Elevation

Earthquake Activity

City Distance Mag. Time & Date
Minimum magnitude displayed is 2.5.

Coastal Water Temperatures

Place Temperature

Nearby Weather Stations